Tropical Cyclones
[Index]
Main Index Home Page Stock Weather Photos Extreme Storms Discussion Storm News and Storm Chasing Reports Tropical Cyclones / Hurricanes / Typhoons Weather Data and Links Wild Fires / Bushfires Weather Observation Techniques Weather Picture Catalogue Tornado Pictures and Reports Stock Video Footage and DVDs for sale
Season 1984-1985 Tropical Cyclone PIERRE Track Map
Season 1984-1985 Summaries: [BoM-AU] [JTWC-AU] [JTWC-SIO] [JTWC-SPAC] [JTWC-SH]
<<- Previous TC | BoM 1984-1985 Season | Next TC ->>

click for intensity scale information  Lat/long Grid: Show Hide

 Date Labels: Show Hide

Bureau of Meteorology Tropical Cyclone Data

Name: PIERRE
Number: 672 / 198485_10

18 Feb 1985 06:00 UTC to 24 Feb 1985 06:00 UTC

    date/time    lat    long    hPa   cat  kts
1985-02-18 06   11.8   143.3   1002                     
1985-02-18 12   11.8   143.7   1002                     
1985-02-18 18   12.0   144.4   1002                     
1985-02-19 00   12.3   145.1   1004                     
1985-02-19 06   12.9   145.7   1001                     
1985-02-19 12   13.4   145.9   1000                     
1985-02-19 18   14.0   146.2    999                     
1985-02-20 00   14.7   146.4    998                     
1985-02-20 06   15.4   146.7    995    1                
1985-02-20 12   16.3   147.2    995    1                
1985-02-20 18   17.3   147.8    991    1                
1985-02-21 00   18.5   148.6    986    1                
1985-02-21 06   20.2   149.5    986    1                
1985-02-21 12   21.3   150.1    990    1                
1985-02-21 18   22.2   150.3    995    1                
1985-02-21 21   22.7   150.6    998                     
1985-02-22 00   23.0   151.0    999                     
1985-02-22 06   23.3   152.0   1000                     
1985-02-22 12   23.5   153.0   1001                     
1985-02-22 18   23.6   154.0   1001                     
1985-02-23 00   23.7   155.0   1003                     
1985-02-23 06   23.7   156.0   1003                     
1985-02-23 12   23.5   156.9   1005                     
1985-02-23 18   23.5   157.8   1005                     
1985-02-24 00   23.5   158.5   1005                     
1985-02-24 06   23.8   160.0   1003                     
Winds are 10-min average.

Tropical cyclone tracks developed by Michael Bath using data from the Bureau of Meteorology and Google Maps.


[Australian Severe Weather index] [Copyright Notice] [Email Contacts] [Search This Site] [Privacy Policy]
Document: tropical_cyclone_pierre.htm Updated: 30 May 2013